createdAt,value
2018-12-13T05:00:17.825Z,18.40
2018-12-13T05:02:40.467Z,17.93
2018-12-13T05:05:03.443Z,15.93
2018-12-13T05:07:26.087Z,16.87
2018-12-13T05:09:48.737Z,18.17
2018-12-13T05:12:11.308Z,18.70
2018-12-13T05:14:33.940Z,16.63
2018-12-13T06:00:17.265Z,16.30
2018-12-13T06:02:54.096Z,15.33
2018-12-13T06:05:16.787Z,17.33
2018-12-13T06:07:39.500Z,15.40
2018-12-13T06:10:02.365Z,13.93
2018-12-13T06:12:24.961Z,14.40
2018-12-13T06:14:47.604Z,18.13
2018-12-13T07:00:29.047Z,15.83
2018-12-13T07:02:51.651Z,19.57
2018-12-13T07:05:14.213Z,19.13
2018-12-13T07:07:36.817Z,17.93
2018-12-13T07:09:59.408Z,18.63
2018-12-13T07:12:21.989Z,18.20
2018-12-13T07:14:44.578Z,17.70
2018-12-13T08:00:24.678Z,20.73
2018-12-13T08:02:47.445Z,23.97
2018-12-13T08:05:10.365Z,21.47
2018-12-13T08:07:33.279Z,18.60
2018-12-13T08:09:56.000Z,21.33
2018-12-13T08:12:18.671Z,24.07
2018-12-13T08:14:41.587Z,22.50
2018-12-13T09:00:17.598Z,23.70
2018-12-13T09:02:40.209Z,19.27
2018-12-13T09:05:02.957Z,20.30
2018-12-13T09:07:25.686Z,25.80
2018-12-13T09:09:54.640Z,23.33
2018-12-13T09:12:17.300Z,21.67
2018-12-13T09:14:39.962Z,20.10
2018-12-13T10:00:18.848Z,28.50
2018-12-13T10:02:42.313Z,30.30
2018-12-13T10:05:05.170Z,29.60
2018-12-13T10:07:48.607Z,31.83
2018-12-13T10:10:11.388Z,32.67
2018-12-13T10:12:59.683Z,31.07
2018-12-13T11:01:43.629Z,42.00
2018-12-13T11:04:06.243Z,39.07
2018-12-13T11:06:28.844Z,38.70
2018-12-13T11:08:51.513Z,38.57
2018-12-13T11:11:14.150Z,45.17
2018-12-13T11:13:37.048Z,40.20
2018-12-13T12:02:36.060Z,34.00
2018-12-13T12:04:58.821Z,36.43
2018-12-13T12:07:21.485Z,30.30
2018-12-13T12:09:45.548Z,32.03
2018-12-13T12:12:08.265Z,35.40
2018-12-13T12:14:30.957Z,34.63
2018-12-13T13:00:19.557Z,25.00
2018-12-13T15:02:10.204Z,28.07
2018-12-13T15:04:32.840Z,27.50
2018-12-13T15:06:55.525Z,25.43
2018-12-13T15:09:18.200Z,24.90
2018-12-13T15:11:40.799Z,24.67
2018-12-13T15:14:04.398Z,23.30
2018-12-13T16:02:38.308Z,20.83
2018-12-13T16:05:01.100Z,18.07
2018-12-13T16:07:23.757Z,23.00
2018-12-13T17:00:19.729Z,23.83
2018-12-13T17:02:43.025Z,22.80
2018-12-13T18:05:44.081Z,24.13
2018-12-13T18:08:06.721Z,24.57
2018-12-13T18:10:52.703Z,24.90
2018-12-13T18:13:16.413Z,29.17
2018-12-13T19:02:21.389Z,27.37
2018-12-13T19:04:44.019Z,29.53
2018-12-13T20:02:39.453Z,26.77
2018-12-13T20:05:02.162Z,33.00
2018-12-13T20:07:24.985Z,28.20
2018-12-13T20:10:07.762Z,29.50
2018-12-13T20:12:30.515Z,29.27
2018-12-13T20:14:53.887Z,28.10
2018-12-13T21:00:44.465Z,32.03
2018-12-13T21:03:07.104Z,34.33
2018-12-13T21:05:29.733Z,32.83
2018-12-13T21:08:08.917Z,37.87
2018-12-13T21:10:31.524Z,34.53
2018-12-13T21:12:54.108Z,34.03
